sensor_id;sensor_type;location;lat;lon;timestamp;P1;durP1;ratioP1;P2;durP2;ratioP2
545;SDS011;259;53.304;9.816;2023-02-11T00:01:49;11.30;;;10.30;;
545;SDS011;259;53.304;9.816;2023-02-11T00:04:14;11.80;;;10.63;;
545;SDS011;259;53.304;9.816;2023-02-11T00:06:40;12.37;;;11.17;;
545;SDS011;259;53.304;9.816;2023-02-11T00:09:06;12.10;;;10.90;;
545;SDS011;259;53.304;9.816;2023-02-11T00:11:32;12.03;;;10.93;;
545;SDS011;259;53.304;9.816;2023-02-11T00:13:59;10.97;;;9.87;;
545;SDS011;259;53.304;9.816;2023-02-11T00:16:28;11.87;;;10.80;;
545;SDS011;259;53.304;9.816;2023-02-11T00:18:54;11.83;;;10.73;;
545;SDS011;259;53.304;9.816;2023-02-11T00:21:22;11.47;;;10.27;;
545;SDS011;259;53.304;9.816;2023-02-11T00:23:49;12.37;;;11.17;;
545;SDS011;259;53.304;9.816;2023-02-11T00:26:20;11.80;;;10.67;;
545;SDS011;259;53.304;9.816;2023-02-11T00:28:58;10.80;;;9.90;;
545;SDS011;259;53.304;9.816;2023-02-11T00:31:25;11.90;;;10.80;;
545;SDS011;259;53.304;9.816;2023-02-11T00:33:52;11.60;;;10.30;;
545;SDS011;259;53.304;9.816;2023-02-11T00:36:19;11.17;;;10.07;;
545;SDS011;259;53.304;9.816;2023-02-11T00:38:49;13.33;;;12.03;;
545;SDS011;259;53.304;9.816;2023-02-11T00:41:16;11.00;;;10.00;;
545;SDS011;259;53.304;9.816;2023-02-11T00:43:43;11.63;;;10.53;;
545;SDS011;259;53.304;9.816;2023-02-11T00:46:09;11.97;;;10.77;;
545;SDS011;259;53.304;9.816;2023-02-11T00:48:35;10.87;;;9.83;;
545;SDS011;259;53.304;9.816;2023-02-11T00:51:01;13.23;;;11.47;;
545;SDS011;259;53.304;9.816;2023-02-11T00:53:28;11.97;;;10.83;;
545;SDS011;259;53.304;9.816;2023-02-11T00:55:55;11.90;;;10.70;;
545;SDS011;259;53.304;9.816;2023-02-11T00:58:20;10.97;;;9.97;;
545;SDS011;259;53.304;9.816;2023-02-11T01:00:46;12.63;;;11.40;;
545;SDS011;259;53.304;9.816;2023-02-11T01:03:12;11.90;;;10.23;;
545;SDS011;259;53.304;9.816;2023-02-11T01:05:38;11.07;;;10.03;;
545;SDS011;259;53.304;9.816;2023-02-11T01:08:04;11.27;;;10.27;;
545;SDS011;259;53.304;9.816;2023-02-11T01:10:30;11.83;;;10.73;;
545;SDS011;259;53.304;9.816;2023-02-11T01:12:55;12.67;;;10.47;;
545;SDS011;259;53.304;9.816;2023-02-11T01:15:21;11.77;;;10.70;;
545;SDS011;259;53.304;9.816;2023-02-11T01:17:47;11.83;;;10.73;;
545;SDS011;259;53.304;9.816;2023-02-11T01:20:17;11.63;;;10.53;;
545;SDS011;259;53.304;9.816;2023-02-11T01:22:47;11.60;;;10.50;;
545;SDS011;259;53.304;9.816;2023-02-11T01:25:13;11.77;;;10.57;;
545;SDS011;259;53.304;9.816;2023-02-11T01:27:38;11.30;;;10.10;;
545;SDS011;259;53.304;9.816;2023-02-11T01:30:05;11.20;;;10.20;;
545;SDS011;259;53.304;9.816;2023-02-11T01:32:33;10.90;;;10.00;;
545;SDS011;259;53.304;9.816;2023-02-11T01:34:59;11.40;;;9.73;;
545;SDS011;259;53.304;9.816;2023-02-11T01:37:25;10.37;;;9.37;;
545;SDS011;259;53.304;9.816;2023-02-11T01:39:51;11.60;;;10.53;;
545;SDS011;259;53.304;9.816;2023-02-11T01:42:20;10.97;;;9.93;;
545;SDS011;259;53.304;9.816;2023-02-11T01:44:48;12.13;;;11.10;;
545;SDS011;259;53.304;9.816;2023-02-11T01:47:16;11.67;;;10.57;;
545;SDS011;259;53.304;9.816;2023-02-11T01:49:44;10.67;;;9.77;;
545;SDS011;259;53.304;9.816;2023-02-11T01:52:20;10.47;;;9.57;;
545;SDS011;259;53.304;9.816;2023-02-11T01:54:59;11.37;;;10.27;;
545;SDS011;259;53.304;9.816;2023-02-11T01:57:50;12.67;;;11.53;;
545;SDS011;259;53.304;9.816;2023-02-11T02:00:21;11.17;;;10.07;;
545;SDS011;259;53.304;9.816;2023-02-11T02:02:59;10.17;;;9.37;;
545;SDS011;259;53.304;9.816;2023-02-11T02:05:51;11.17;;;10.07;;
545;SDS011;259;53.304;9.816;2023-02-11T02:11:08;10.80;;;9.83;;
545;SDS011;259;53.304;9.816;2023-02-11T02:13:34;10.27;;;9.13;;
545;SDS011;259;53.304;9.816;2023-02-11T02:16:04;10.70;;;9.70;;
545;SDS011;259;53.304;9.816;2023-02-11T02:21:51;11.13;;;10.13;;
545;SDS011;259;53.304;9.816;2023-02-11T02:28:07;10.80;;;9.80;;
545;SDS011;259;53.304;9.816;2023-02-11T02:30:50;10.30;;;9.30;;
545;SDS011;259;53.304;9.816;2023-02-11T02:34:01;10.13;;;9.13;;
545;SDS011;259;53.304;9.816;2023-02-11T02:36:36;10.07;;;9.00;;
545;SDS011;259;53.304;9.816;2023-02-11T02:39:19;10.83;;;9.80;;
545;SDS011;259;53.304;9.816;2023-02-11T02:41:50;10.73;;;9.80;;
545;SDS011;259;53.304;9.816;2023-02-11T02:44:17;11.00;;;9.87;;
545;SDS011;259;53.304;9.816;2023-02-11T02:46:44;10.17;;;8.43;;
545;SDS011;259;53.304;9.816;2023-02-11T02:49:11;10.07;;;9.13;;
545;SDS011;259;53.304;9.816;2023-02-11T02:54:33;8.20;;;7.57;;
545;SDS011;259;53.304;9.816;2023-02-11T03:08:55;9.17;;;8.23;;
545;SDS011;259;53.304;9.816;2023-02-11T03:11:31;9.40;;;8.60;;
545;SDS011;259;53.304;9.816;2023-02-11T03:13:58;12.10;;;8.97;;
545;SDS011;259;53.304;9.816;2023-02-11T03:16:27;9.90;;;9.10;;
545;SDS011;259;53.304;9.816;2023-02-11T03:21:43;8.83;;;8.00;;
545;SDS011;259;53.304;9.816;2023-02-11T03:24:13;9.13;;;8.20;;
545;SDS011;259;53.304;9.816;2023-02-11T03:26:54;9.50;;;8.60;;
545;SDS011;259;53.304;9.816;2023-02-11T03:29:37;8.93;;;8.13;;
545;SDS011;259;53.304;9.816;2023-02-11T03:32:12;8.40;;;7.70;;
545;SDS011;259;53.304;9.816;2023-02-11T03:35:22;10.13;;;9.13;;
545;SDS011;259;53.304;9.816;2023-02-11T03:37:56;8.73;;;7.93;;
545;SDS011;259;53.304;9.816;2023-02-11T03:40:33;8.83;;;8.00;;
545;SDS011;259;53.304;9.816;2023-02-11T03:43:13;9.30;;;8.50;;
545;SDS011;259;53.304;9.816;2023-02-11T03:45:41;8.60;;;7.90;;
545;SDS011;259;53.304;9.816;2023-02-11T03:50:41;7.77;;;7.00;;
545;SDS011;259;53.304;9.816;2023-02-11T03:53:09;8.53;;;7.73;;
545;SDS011;259;53.304;9.816;2023-02-11T03:55:37;8.57;;;7.70;;
545;SDS011;259;53.304;9.816;2023-02-11T03:58:05;7.33;;;6.63;;
545;SDS011;259;53.304;9.816;2023-02-11T04:00:32;7.87;;;7.07;;
545;SDS011;259;53.304;9.816;2023-02-11T04:03:01;7.87;;;7.17;;
545;SDS011;259;53.304;9.816;2023-02-11T04:05:28;8.53;;;7.80;;
545;SDS011;259;53.304;9.816;2023-02-11T04:07:53;8.20;;;7.50;;
545;SDS011;259;53.304;9.816;2023-02-11T04:10:19;7.43;;;6.83;;
545;SDS011;259;53.304;9.816;2023-02-11T04:12:45;8.43;;;7.07;;
545;SDS011;259;53.304;9.816;2023-02-11T04:15:10;7.83;;;7.13;;
545;SDS011;259;53.304;9.816;2023-02-11T04:17:36;7.23;;;6.53;;
545;SDS011;259;53.304;9.816;2023-02-11T04:20:03;7.13;;;6.53;;
545;SDS011;259;53.304;9.816;2023-02-11T04:22:29;8.33;;;6.97;;
545;SDS011;259;53.304;9.816;2023-02-11T04:24:55;7.80;;;7.20;;
545;SDS011;259;53.304;9.816;2023-02-11T04:27:21;8.00;;;7.30;;
545;SDS011;259;53.304;9.816;2023-02-11T04:29:47;6.70;;;6.20;;
545;SDS011;259;53.304;9.816;2023-02-11T04:32:13;6.60;;;6.00;;
545;SDS011;259;53.304;9.816;2023-02-11T04:34:38;7.13;;;6.50;;
545;SDS011;259;53.304;9.816;2023-02-11T04:37:04;7.07;;;6.37;;
545;SDS011;259;53.304;9.816;2023-02-11T04:39:30;7.00;;;6.30;;
545;SDS011;259;53.304;9.816;2023-02-11T04:41:56;7.37;;;6.67;;
545;SDS011;259;53.304;9.816;2023-02-11T04:44:21;7.93;;;6.70;;
545;SDS011;259;53.304;9.816;2023-02-11T04:46:47;6.93;;;6.23;;
545;SDS011;259;53.304;9.816;2023-02-11T04:49:13;6.70;;;6.13;;
545;SDS011;259;53.304;9.816;2023-02-11T04:51:40;7.03;;;6.10;;
545;SDS011;259;53.304;9.816;2023-02-11T04:54:06;8.27;;;7.47;;
545;SDS011;259;53.304;9.816;2023-02-11T04:56:32;6.90;;;6.20;;
545;SDS011;259;53.304;9.816;2023-02-11T04:58:58;6.80;;;6.20;;
545;SDS011;259;53.304;9.816;2023-02-11T05:01:24;7.20;;;6.50;;
545;SDS011;259;53.304;9.816;2023-02-11T05:03:50;6.13;;;5.60;;
545;SDS011;259;53.304;9.816;2023-02-11T05:06:16;6.90;;;6.20;;
545;SDS011;259;53.304;9.816;2023-02-11T05:08:42;5.63;;;5.17;;
545;SDS011;259;53.304;9.816;2023-02-11T05:11:11;6.70;;;6.10;;
545;SDS011;259;53.304;9.816;2023-02-11T05:13:41;7.33;;;6.53;;
545;SDS011;259;53.304;9.816;2023-02-11T05:16:07;5.57;;;5.07;;
545;SDS011;259;53.304;9.816;2023-02-11T05:18:36;6.40;;;5.80;;
545;SDS011;259;53.304;9.816;2023-02-11T05:21:06;6.23;;;5.63;;
545;SDS011;259;53.304;9.816;2023-02-11T05:23:34;5.33;;;4.83;;
545;SDS011;259;53.304;9.816;2023-02-11T05:26:00;6.50;;;5.90;;
545;SDS011;259;53.304;9.816;2023-02-11T05:28:26;5.63;;;5.23;;
545;SDS011;259;53.304;9.816;2023-02-11T05:30:53;6.13;;;5.47;;
545;SDS011;259;53.304;9.816;2023-02-11T05:33:19;8.13;;;5.10;;
545;SDS011;259;53.304;9.816;2023-02-11T05:35:44;7.23;;;5.50;;
545;SDS011;259;53.304;9.816;2023-02-11T05:38:10;5.37;;;4.80;;
545;SDS011;259;53.304;9.816;2023-02-11T05:40:36;5.00;;;4.33;;
545;SDS011;259;53.304;9.816;2023-02-11T05:43:01;6.33;;;5.73;;
545;SDS011;259;53.304;9.816;2023-02-11T05:45:27;5.77;;;5.10;;
545;SDS011;259;53.304;9.816;2023-02-11T05:47:53;5.10;;;4.70;;
545;SDS011;259;53.304;9.816;2023-02-11T05:50:19;5.93;;;5.40;;
545;SDS011;259;53.304;9.816;2023-02-11T05:52:45;5.40;;;4.90;;
545;SDS011;259;53.304;9.816;2023-02-11T05:55:10;5.40;;;4.90;;
545;SDS011;259;53.304;9.816;2023-02-11T05:57:36;5.43;;;4.93;;
545;SDS011;259;53.304;9.816;2023-02-11T06:00:02;6.30;;;4.73;;
545;SDS011;259;53.304;9.816;2023-02-11T06:02:30;5.47;;;4.97;;
545;SDS011;259;53.304;9.816;2023-02-11T06:04:55;4.80;;;4.37;;
545;SDS011;259;53.304;9.816;2023-02-11T06:07:21;5.30;;;4.80;;
545;SDS011;259;53.304;9.816;2023-02-11T06:09:47;4.90;;;4.50;;
545;SDS011;259;53.304;9.816;2023-02-11T06:12:12;4.90;;;4.50;;
545;SDS011;259;53.304;9.816;2023-02-11T06:14:38;5.33;;;4.90;;
545;SDS011;259;53.304;9.816;2023-02-11T06:17:04;5.53;;;5.13;;
545;SDS011;259;53.304;9.816;2023-02-11T06:19:30;5.10;;;4.70;;
545;SDS011;259;53.304;9.816;2023-02-11T06:21:55;4.70;;;4.30;;
545;SDS011;259;53.304;9.816;2023-02-11T06:24:21;5.37;;;4.40;;
545;SDS011;259;53.304;9.816;2023-02-11T06:26:48;5.93;;;4.80;;
545;SDS011;259;53.304;9.816;2023-02-11T06:29:13;5.40;;;5.00;;
545;SDS011;259;53.304;9.816;2023-02-11T06:31:39;5.30;;;4.33;;
545;SDS011;259;53.304;9.816;2023-02-11T06:34:05;4.93;;;4.23;;
545;SDS011;259;53.304;9.816;2023-02-11T06:36:32;4.20;;;3.90;;
545;SDS011;259;53.304;9.816;2023-02-11T06:38:58;4.50;;;4.20;;
545;SDS011;259;53.304;9.816;2023-02-11T06:41:24;4.63;;;4.23;;
545;SDS011;259;53.304;9.816;2023-02-11T06:43:50;4.50;;;4.10;;
545;SDS011;259;53.304;9.816;2023-02-11T06:46:17;5.30;;;4.80;;
545;SDS011;259;53.304;9.816;2023-02-11T06:48:42;5.47;;;4.10;;
545;SDS011;259;53.304;9.816;2023-02-11T06:51:09;5.20;;;4.70;;
545;SDS011;259;53.304;9.816;2023-02-11T06:53:38;4.70;;;4.20;;
545;SDS011;259;53.304;9.816;2023-02-11T06:56:07;4.37;;;4.00;;
545;SDS011;259;53.304;9.816;2023-02-11T06:58:35;5.33;;;4.40;;
545;SDS011;259;53.304;9.816;2023-02-11T07:01:05;4.60;;;4.20;;
545;SDS011;259;53.304;9.816;2023-02-11T07:03:34;5.10;;;4.43;;
545;SDS011;259;53.304;9.816;2023-02-11T07:06:01;4.50;;;4.10;;
545;SDS011;259;53.304;9.816;2023-02-11T07:08:32;4.00;;;3.80;;
545;SDS011;259;53.304;9.816;2023-02-11T07:11:00;4.33;;;4.00;;
545;SDS011;259;53.304;9.816;2023-02-11T07:13:26;4.13;;;3.83;;
545;SDS011;259;53.304;9.816;2023-02-11T07:15:51;4.80;;;4.40;;
545;SDS011;259;53.304;9.816;2023-02-11T07:18:17;5.03;;;4.53;;
545;SDS011;259;53.304;9.816;2023-02-11T07:20:43;5.60;;;5.10;;
545;SDS011;259;53.304;9.816;2023-02-11T07:23:09;4.17;;;3.83;;
545;SDS011;259;53.304;9.816;2023-02-11T07:25:34;4.77;;;4.33;;
545;SDS011;259;53.304;9.816;2023-02-11T07:28:00;4.50;;;4.10;;
545;SDS011;259;53.304;9.816;2023-02-11T07:30:27;4.87;;;4.40;;
545;SDS011;259;53.304;9.816;2023-02-11T07:32:53;4.30;;;4.00;;
545;SDS011;259;53.304;9.816;2023-02-11T07:35:20;4.83;;;4.33;;
545;SDS011;259;53.304;9.816;2023-02-11T07:37:46;4.13;;;3.73;;
545;SDS011;259;53.304;9.816;2023-02-11T07:40:11;3.97;;;3.60;;
545;SDS011;259;53.304;9.816;2023-02-11T07:42:37;3.57;;;3.27;;
545;SDS011;259;53.304;9.816;2023-02-11T07:45:05;4.30;;;3.90;;
545;SDS011;259;53.304;9.816;2023-02-11T07:47:32;4.47;;;3.60;;
545;SDS011;259;53.304;9.816;2023-02-11T07:49:59;3.83;;;3.53;;
545;SDS011;259;53.304;9.816;2023-02-11T07:52:27;3.27;;;2.97;;
545;SDS011;259;53.304;9.816;2023-02-11T07:54:54;4.07;;;3.77;;
545;SDS011;259;53.304;9.816;2023-02-11T07:57:21;3.70;;;3.40;;
545;SDS011;259;53.304;9.816;2023-02-11T07:59:46;3.70;;;3.40;;
545;SDS011;259;53.304;9.816;2023-02-11T08:02:12;3.70;;;3.40;;
545;SDS011;259;53.304;9.816;2023-02-11T08:04:38;4.10;;;3.70;;
545;SDS011;259;53.304;9.816;2023-02-11T08:07:03;3.70;;;3.40;;
545;SDS011;259;53.304;9.816;2023-02-11T08:09:29;4.30;;;3.90;;
545;SDS011;259;53.304;9.816;2023-02-11T08:11:55;3.80;;;3.37;;
545;SDS011;259;53.304;9.816;2023-02-11T08:14:20;3.77;;;3.47;;
545;SDS011;259;53.304;9.816;2023-02-11T08:16:46;4.60;;;3.53;;
545;SDS011;259;53.304;9.816;2023-02-11T08:19:13;4.07;;;3.70;;
545;SDS011;259;53.304;9.816;2023-02-11T08:21:39;3.67;;;3.37;;
545;SDS011;259;53.304;9.816;2023-02-11T08:24:06;3.20;;;3.00;;
545;SDS011;259;53.304;9.816;2023-02-11T08:26:33;3.70;;;3.40;;
545;SDS011;259;53.304;9.816;2023-02-11T08:28:59;3.90;;;3.60;;
545;SDS011;259;53.304;9.816;2023-02-11T08:31:32;3.87;;;3.57;;
545;SDS011;259;53.304;9.816;2023-02-11T08:34:00;4.57;;;4.13;;
545;SDS011;259;53.304;9.816;2023-02-11T08:36:30;3.53;;;3.23;;
545;SDS011;259;53.304;9.816;2023-02-11T08:39:00;3.40;;;3.10;;
545;SDS011;259;53.304;9.816;2023-02-11T08:41:29;3.40;;;3.10;;
545;SDS011;259;53.304;9.816;2023-02-11T08:43:58;3.73;;;3.43;;
545;SDS011;259;53.304;9.816;2023-02-11T08:46:25;4.10;;;2.90;;
545;SDS011;259;53.304;9.816;2023-02-11T08:48:51;3.40;;;3.10;;
545;SDS011;259;53.304;9.816;2023-02-11T08:51:24;4.50;;;3.90;;
545;SDS011;259;53.304;9.816;2023-02-11T08:53:54;4.17;;;3.13;;
545;SDS011;259;53.304;9.816;2023-02-11T08:56:21;4.00;;;3.60;;
545;SDS011;259;53.304;9.816;2023-02-11T08:58:47;5.32;;;4.20;;
545;SDS011;259;53.304;9.816;2023-02-11T09:01:18;7.17;;;4.80;;
545;SDS011;259;53.304;9.816;2023-02-11T09:03:48;8.43;;;5.37;;
545;SDS011;259;53.304;9.816;2023-02-11T09:06:13;9.30;;;4.73;;
545;SDS011;259;53.304;9.816;2023-02-11T09:08:43;7.60;;;4.70;;
545;SDS011;259;53.304;9.816;2023-02-11T09:11:11;6.67;;;4.63;;
545;SDS011;259;53.304;9.816;2023-02-11T09:13:39;13.03;;;4.03;;
545;SDS011;259;53.304;9.816;2023-02-11T09:16:06;10.10;;;4.47;;
545;SDS011;259;53.304;9.816;2023-02-11T09:18:35;7.60;;;4.30;;
545;SDS011;259;53.304;9.816;2023-02-11T09:21:01;6.63;;;3.90;;
545;SDS011;259;53.304;9.816;2023-02-11T09:23:29;3.63;;;2.87;;
545;SDS011;259;53.304;9.816;2023-02-11T09:25:58;10.37;;;3.47;;
545;SDS011;259;53.304;9.816;2023-02-11T09:28:34;4.33;;;3.30;;
545;SDS011;259;53.304;9.816;2023-02-11T09:31:06;6.43;;;3.10;;
545;SDS011;259;53.304;9.816;2023-02-11T09:33:34;4.90;;;2.57;;
545;SDS011;259;53.304;9.816;2023-02-11T09:36:01;4.37;;;2.60;;
545;SDS011;259;53.304;9.816;2023-02-11T09:38:31;4.60;;;2.50;;
545;SDS011;259;53.304;9.816;2023-02-11T09:40:57;3.37;;;2.60;;
545;SDS011;259;53.304;9.816;2023-02-11T09:43:30;3.43;;;1.93;;
545;SDS011;259;53.304;9.816;2023-02-11T09:46:07;3.97;;;2.30;;
545;SDS011;259;53.304;9.816;2023-02-11T09:48:39;4.20;;;1.93;;
545;SDS011;259;53.304;9.816;2023-02-11T09:51:13;4.03;;;2.20;;
545;SDS011;259;53.304;9.816;2023-02-11T09:53:56;4.10;;;1.97;;
545;SDS011;259;53.304;9.816;2023-02-11T09:56:27;2.33;;;1.77;;
545;SDS011;259;53.304;9.816;2023-02-11T09:58:53;2.30;;;1.50;;
545;SDS011;259;53.304;9.816;2023-02-11T10:15:44;6.60;;;3.10;;
545;SDS011;259;53.304;9.816;2023-02-11T10:21:31;31.20;;;8.90;;
545;SDS011;259;53.304;9.816;2023-02-11T10:24:30;15.53;;;6.90;;
545;SDS011;259;53.304;9.816;2023-02-11T10:26:56;14.73;;;5.57;;
545;SDS011;259;53.304;9.816;2023-02-11T10:31:59;14.53;;;4.97;;
545;SDS011;259;53.304;9.816;2023-02-11T10:34:38;16.90;;;5.37;;
545;SDS011;259;53.304;9.816;2023-02-11T10:37:07;19.73;;;4.57;;
545;SDS011;259;53.304;9.816;2023-02-11T10:39:36;14.80;;;4.20;;
545;SDS011;259;53.304;9.816;2023-02-11T10:42:04;29.03;;;8.03;;
545;SDS011;259;53.304;9.816;2023-02-11T10:44:36;18.20;;;4.37;;
545;SDS011;259;53.304;9.816;2023-02-11T10:47:13;13.47;;;5.30;;
545;SDS011;259;53.304;9.816;2023-02-11T10:49:45;21.63;;;6.07;;
545;SDS011;259;53.304;9.816;2023-02-11T10:52:28;21.17;;;4.33;;
545;SDS011;259;53.304;9.816;2023-02-11T10:57:41;20.57;;;5.83;;
545;SDS011;259;53.304;9.816;2023-02-11T11:00:31;30.17;;;5.60;;
545;SDS011;259;53.304;9.816;2023-02-11T11:03:15;34.03;;;6.20;;
545;SDS011;259;53.304;9.816;2023-02-11T11:08:19;19.40;;;4.80;;
545;SDS011;259;53.304;9.816;2023-02-11T11:10:46;19.60;;;4.40;;
545;SDS011;259;53.304;9.816;2023-02-11T11:13:38;18.93;;;4.00;;
545;SDS011;259;53.304;9.816;2023-02-11T11:18:49;11.07;;;4.10;;
545;SDS011;259;53.304;9.816;2023-02-11T11:23:56;10.53;;;3.10;;
545;SDS011;259;53.304;9.816;2023-02-11T11:26:25;12.37;;;3.40;;
545;SDS011;259;53.304;9.816;2023-02-11T11:32:23;18.43;;;3.73;;
545;SDS011;259;53.304;9.816;2023-02-11T11:34:57;26.50;;;3.90;;
545;SDS011;259;53.304;9.816;2023-02-11T11:42:40;10.70;;;2.80;;
545;SDS011;259;53.304;9.816;2023-02-11T11:47:46;14.03;;;3.00;;
545;SDS011;259;53.304;9.816;2023-02-11T11:50:26;12.30;;;3.70;;
545;SDS011;259;53.304;9.816;2023-02-11T11:56:01;27.47;;;4.30;;
545;SDS011;259;53.304;9.816;2023-02-11T11:58:33;32.97;;;7.27;;
545;SDS011;259;53.304;9.816;2023-02-11T12:24:52;12.80;;;2.70;;
545;SDS011;259;53.304;9.816;2023-02-11T12:30:23;10.53;;;3.00;;
545;SDS011;259;53.304;9.816;2023-02-11T12:33:28;6.10;;;2.70;;
545;SDS011;259;53.304;9.816;2023-02-11T12:36:41;9.93;;;2.57;;
545;SDS011;259;53.304;9.816;2023-02-11T12:48:25;10.47;;;2.27;;
545;SDS011;259;53.304;9.816;2023-02-11T12:54:15;10.83;;;2.17;;
545;SDS011;259;53.304;9.816;2023-02-11T12:59:43;6.10;;;2.10;;
545;SDS011;259;53.304;9.816;2023-02-11T13:02:55;3.83;;;2.10;;
545;SDS011;259;53.304;9.816;2023-02-11T13:05:48;3.67;;;1.57;;
545;SDS011;259;53.304;9.816;2023-02-11T13:08:44;5.87;;;2.17;;
545;SDS011;259;53.304;9.816;2023-02-11T13:16:32;3.80;;;1.60;;
545;SDS011;259;53.304;9.816;2023-02-11T13:24:40;3.33;;;1.30;;
545;SDS011;259;53.304;9.816;2023-02-11T13:27:36;3.67;;;1.43;;
545;SDS011;259;53.304;9.816;2023-02-11T13:38:04;2.70;;;1.97;;
545;SDS011;259;53.304;9.816;2023-02-11T13:40:44;2.47;;;1.20;;
545;SDS011;259;53.304;9.816;2023-02-11T13:43:32;2.50;;;1.30;;
545;SDS011;259;53.304;9.816;2023-02-11T13:46:04;2.10;;;1.37;;
545;SDS011;259;53.304;9.816;2023-02-11T13:48:36;2.50;;;1.63;;
545;SDS011;259;53.304;9.816;2023-02-11T13:51:10;3.63;;;1.63;;
545;SDS011;259;53.304;9.816;2023-02-11T13:53:57;1.37;;;1.27;;
545;SDS011;259;53.304;9.816;2023-02-11T13:56:34;2.43;;;1.80;;
545;SDS011;259;53.304;9.816;2023-02-11T14:02:02;1.97;;;1.27;;
545;SDS011;259;53.304;9.816;2023-02-11T14:22:04;2.67;;;1.23;;
545;SDS011;259;53.304;9.816;2023-02-11T14:32:43;1.77;;;1.50;;
545;SDS011;259;53.304;9.816;2023-02-11T14:35:51;1.47;;;1.30;;
545;SDS011;259;53.304;9.816;2023-02-11T14:42:16;1.37;;;1.27;;
545;SDS011;259;53.304;9.816;2023-02-11T14:44:49;2.13;;;1.50;;
545;SDS011;259;53.304;9.816;2023-02-11T14:47:18;1.80;;;1.20;;
545;SDS011;259;53.304;9.816;2023-02-11T14:49:50;1.90;;;1.27;;
545;SDS011;259;53.304;9.816;2023-02-11T14:58:04;1.83;;;1.50;;
545;SDS011;259;53.304;9.816;2023-02-11T15:00:32;1.63;;;1.10;;
545;SDS011;259;53.304;9.816;2023-02-11T15:02:58;1.20;;;1.10;;
545;SDS011;259;53.304;9.816;2023-02-11T15:05:25;1.33;;;1.23;;
545;SDS011;259;53.304;9.816;2023-02-11T15:07:57;1.90;;;1.40;;
545;SDS011;259;53.304;9.816;2023-02-11T15:10:30;2.00;;;1.37;;
545;SDS011;259;53.304;9.816;2023-02-11T15:13:01;1.63;;;1.10;;
545;SDS011;259;53.304;9.816;2023-02-11T15:15:28;1.10;;;1.00;;
545;SDS011;259;53.304;9.816;2023-02-11T15:17:57;1.43;;;1.10;;
545;SDS011;259;53.304;9.816;2023-02-11T15:20:26;1.20;;;1.10;;
545;SDS011;259;53.304;9.816;2023-02-11T15:22:59;1.30;;;1.20;;
545;SDS011;259;53.304;9.816;2023-02-11T15:25:31;1.20;;;1.10;;
545;SDS011;259;53.304;9.816;2023-02-11T15:27:57;1.23;;;1.00;;
545;SDS011;259;53.304;9.816;2023-02-11T15:35:45;1.40;;;1.00;;
545;SDS011;259;53.304;9.816;2023-02-11T15:38:10;1.03;;;0.93;;
545;SDS011;259;53.304;9.816;2023-02-11T15:40:38;0.80;;;0.80;;
545;SDS011;259;53.304;9.816;2023-02-11T15:43:04;1.57;;;1.00;;
545;SDS011;259;53.304;9.816;2023-02-11T15:45:33;2.70;;;0.90;;
545;SDS011;259;53.304;9.816;2023-02-11T15:54:04;0.90;;;0.90;;
545;SDS011;259;53.304;9.816;2023-02-11T15:56:41;1.10;;;1.00;;
545;SDS011;259;53.304;9.816;2023-02-11T15:59:14;1.33;;;0.90;;
545;SDS011;259;53.304;9.816;2023-02-11T16:02:16;1.20;;;1.10;;
545;SDS011;259;53.304;9.816;2023-02-11T16:04:58;1.13;;;1.03;;
545;SDS011;259;53.304;9.816;2023-02-11T16:07:41;1.10;;;1.00;;
545;SDS011;259;53.304;9.816;2023-02-11T16:15:57;1.10;;;1.00;;
545;SDS011;259;53.304;9.816;2023-02-11T16:20:55;1.20;;;1.00;;
545;SDS011;259;53.304;9.816;2023-02-11T16:23:37;1.17;;;1.00;;
545;SDS011;259;53.304;9.816;2023-02-11T16:26:28;1.20;;;1.10;;
545;SDS011;259;53.304;9.816;2023-02-11T16:29:03;1.03;;;0.90;;
545;SDS011;259;53.304;9.816;2023-02-11T16:31:42;1.10;;;1.00;;
545;SDS011;259;53.304;9.816;2023-02-11T16:34:12;3.03;;;1.13;;
545;SDS011;259;53.304;9.816;2023-02-11T16:36:46;1.70;;;1.60;;
545;SDS011;259;53.304;9.816;2023-02-11T16:39:13;1.40;;;1.10;;
545;SDS011;259;53.304;9.816;2023-02-11T16:41:41;0.80;;;0.80;;
545;SDS011;259;53.304;9.816;2023-02-11T16:44:06;1.37;;;1.27;;
545;SDS011;259;53.304;9.816;2023-02-11T16:46:32;1.37;;;1.20;;
545;SDS011;259;53.304;9.816;2023-02-11T16:48:59;1.07;;;1.00;;
545;SDS011;259;53.304;9.816;2023-02-11T16:52:08;1.30;;;0.93;;
545;SDS011;259;53.304;9.816;2023-02-11T16:54:40;1.40;;;1.10;;
545;SDS011;259;53.304;9.816;2023-02-11T16:57:14;0.97;;;0.87;;
545;SDS011;259;53.304;9.816;2023-02-11T16:59:41;1.53;;;1.10;;
545;SDS011;259;53.304;9.816;2023-02-11T17:02:10;1.30;;;1.20;;
545;SDS011;259;53.304;9.816;2023-02-11T17:04:53;0.90;;;0.90;;
545;SDS011;259;53.304;9.816;2023-02-11T17:07:21;1.00;;;0.90;;
545;SDS011;259;53.304;9.816;2023-02-11T17:09:47;1.30;;;1.20;;
545;SDS011;259;53.304;9.816;2023-02-11T17:12:13;1.20;;;1.10;;
545;SDS011;259;53.304;9.816;2023-02-11T17:14:38;1.27;;;1.17;;
545;SDS011;259;53.304;9.816;2023-02-11T17:17:04;1.20;;;1.10;;
545;SDS011;259;53.304;9.816;2023-02-11T17:19:30;1.23;;;1.07;;
545;SDS011;259;53.304;9.816;2023-02-11T17:21:56;1.30;;;1.20;;
545;SDS011;259;53.304;9.816;2023-02-11T17:24:21;1.30;;;1.20;;
545;SDS011;259;53.304;9.816;2023-02-11T17:26:47;1.40;;;1.30;;
545;SDS011;259;53.304;9.816;2023-02-11T17:29:15;1.20;;;1.10;;
545;SDS011;259;53.304;9.816;2023-02-11T17:31:44;0.90;;;0.87;;
545;SDS011;259;53.304;9.816;2023-02-11T17:34:10;2.10;;;1.60;;
545;SDS011;259;53.304;9.816;2023-02-11T17:36:36;1.60;;;1.50;;
545;SDS011;259;53.304;9.816;2023-02-11T17:39:02;1.53;;;1.20;;
545;SDS011;259;53.304;9.816;2023-02-11T17:41:29;1.30;;;1.20;;
545;SDS011;259;53.304;9.816;2023-02-11T17:43:58;1.30;;;1.20;;
545;SDS011;259;53.304;9.816;2023-02-11T17:46:25;1.10;;;1.00;;
545;SDS011;259;53.304;9.816;2023-02-11T17:48:52;1.63;;;1.53;;
545;SDS011;259;53.304;9.816;2023-02-11T17:51:20;1.30;;;1.20;;
545;SDS011;259;53.304;9.816;2023-02-11T17:53:47;0.90;;;0.70;;
545;SDS011;259;53.304;9.816;2023-02-11T17:56:12;1.67;;;1.40;;
545;SDS011;259;53.304;9.816;2023-02-11T17:58:38;1.70;;;1.60;;
545;SDS011;259;53.304;9.816;2023-02-11T18:01:04;1.67;;;1.20;;
545;SDS011;259;53.304;9.816;2023-02-11T18:03:30;2.10;;;1.70;;
545;SDS011;259;53.304;9.816;2023-02-11T18:06:00;1.57;;;1.40;;
545;SDS011;259;53.304;9.816;2023-02-11T18:08:28;1.53;;;1.43;;
545;SDS011;259;53.304;9.816;2023-02-11T18:10:54;1.20;;;1.10;;
545;SDS011;259;53.304;9.816;2023-02-11T18:13:20;1.47;;;1.33;;
545;SDS011;259;53.304;9.816;2023-02-11T18:15:46;1.23;;;1.13;;
545;SDS011;259;53.304;9.816;2023-02-11T18:18:12;1.40;;;1.30;;
545;SDS011;259;53.304;9.816;2023-02-11T18:20:37;1.47;;;1.20;;
545;SDS011;259;53.304;9.816;2023-02-11T18:23:06;2.00;;;1.30;;
545;SDS011;259;53.304;9.816;2023-02-11T18:25:35;1.50;;;1.40;;
545;SDS011;259;53.304;9.816;2023-02-11T18:28:02;1.87;;;1.77;;
545;SDS011;259;53.304;9.816;2023-02-11T18:30:27;1.63;;;1.50;;
545;SDS011;259;53.304;9.816;2023-02-11T18:32:54;1.30;;;1.20;;
545;SDS011;259;53.304;9.816;2023-02-11T18:35:20;1.50;;;1.40;;
545;SDS011;259;53.304;9.816;2023-02-11T18:37:46;1.30;;;1.20;;
545;SDS011;259;53.304;9.816;2023-02-11T18:40:13;1.17;;;1.07;;
545;SDS011;259;53.304;9.816;2023-02-11T18:42:39;1.40;;;1.30;;
545;SDS011;259;53.304;9.816;2023-02-11T18:45:06;1.37;;;1.27;;
545;SDS011;259;53.304;9.816;2023-02-11T18:47:36;1.10;;;1.00;;
545;SDS011;259;53.304;9.816;2023-02-11T18:50:06;1.13;;;1.03;;
545;SDS011;259;53.304;9.816;2023-02-11T18:52:33;1.53;;;1.43;;
545;SDS011;259;53.304;9.816;2023-02-11T18:55:03;1.47;;;1.37;;
545;SDS011;259;53.304;9.816;2023-02-11T18:57:30;1.40;;;1.30;;
545;SDS011;259;53.304;9.816;2023-02-11T18:59:56;1.40;;;1.30;;
545;SDS011;259;53.304;9.816;2023-02-11T19:02:21;1.30;;;1.20;;
545;SDS011;259;53.304;9.816;2023-02-11T19:04:48;1.30;;;1.20;;
545;SDS011;259;53.304;9.816;2023-02-11T19:07:15;2.20;;;1.40;;
545;SDS011;259;53.304;9.816;2023-02-11T19:09:41;1.70;;;1.60;;
545;SDS011;259;53.304;9.816;2023-02-11T19:12:06;2.00;;;1.57;;